Time;durP1;ratioP1;P1;durP2;ratioP2;P2;SDS_P1;SDS_P2;PMS_P1;PMS_P2;Temp;Humidity;BMP_temperature;BMP_pressure;BME280_temperature;BME280_humidity;BME280_pressure;Samples;Min_cycle;Max_cycle;Signal;HPM_P1;HPM_P2
2022/05/27 00:00:44;;;;;;;;;;;;;;;21.10;58.72;101166.03;7404562;19;1426;-68
2022/05/27 00:03:14;;;;;;;;;;;;;;;21.14;59.69;101168.31;7401812;19;1523;-69
2022/05/27 00:05:44;;;;;;;;;;;;;;;21.06;58.91;101174.38;7402839;19;1882;-69
2022/05/27 00:08:13;;;;;;;;;;;;;;;21.05;59.09;101180.75;7404255;19;1615;-69
2022/05/27 00:10:42;;;;;;;;;;;;;;;20.98;59.22;101170.69;7404972;19;1628;-69
2022/05/27 00:13:10;;;;;;;;;;;;;;;20.99;58.21;101170.56;7404926;19;1886;-64
2022/05/27 00:15:43;;;;;;;;;;;;;;;20.98;59.21;101171.53;7403742;19;1692;-63
2022/05/27 00:18:11;;;;;;;;;;;;;;;21.05;60.51;101178.06;7403256;19;1572;-64
2022/05/27 00:20:40;;;;;;;;;;;;;;;21.04;59.67;101168.28;7404659;19;1493;-69
2022/05/27 00:23:08;;;;;;;;;;;;;;;21.08;60.48;101176.94;7404857;19;1609;-69
2022/05/27 00:25:37;;;;;;;;;;;;;;;21.17;60.78;101172.53;7403537;19;1920;-68
2022/05/27 00:28:06;;;;;;;;;;;;;;;21.17;60.67;101169.84;7403358;19;1445;-68
2022/05/27 00:30:34;;;;;;;;;;;;;;;21.19;60.06;101175.97;7404014;19;1469;-68
2022/05/27 00:33:07;;;;;;;;;;;;;;;21.18;59.80;101160.81;7404197;19;1422;-64
2022/05/27 00:35:36;;;;;;;;;;;;;;;21.22;60.39;101162.22;7404167;19;1338;-68
2022/05/27 00:38:04;;;;;;;;;;;;;;;21.21;60.03;101155.16;7410423;19;1534;-63
2022/05/27 00:40:37;;;;;;;;;;;;;;;21.21;59.28;101160.53;7410710;19;1716;-64
2022/05/27 00:43:06;;;;;;;;;;;;;;;21.15;58.90;101155.69;7411782;19;1731;-64
2022/05/27 00:45:36;;;;;;;;;;;;;;;21.14;59.16;101159.41;7408514;19;1861;-64
2022/05/27 00:48:09;;;;;;;;;;;;;;;21.14;58.46;101154.03;7407559;19;1646;-63
2022/05/27 00:50:40;;;;;;;;;;;;;;;21.10;58.91;101149.91;7410850;19;1404;-69
2022/05/27 00:53:09;;;;;;;;;;;;;;;21.10;58.96;101142.69;7410768;19;1444;-69
2022/05/27 00:55:42;;;;;;;;;;;;;;;21.10;58.47;101163.34;7410989;19;1526;-69
2022/05/27 00:58:12;;;;;;;;;;;;;;;21.10;58.53;101152.59;7411531;19;1746;-65
2022/05/27 01:00:41;;;;;;;;;;;;;;;21.12;58.62;101153.31;7410794;19;1346;-64
2022/05/27 01:03:15;;;;;;;;;;;;;;;21.14;58.64;101160.25;7406857;19;1668;-69
2022/05/27 01:05:44;;;;;;;;;;;;;;;21.18;58.60;101167.03;7407946;19;1853;-68
2022/05/27 01:08:14;;;;;;;;;;;;;;;21.16;58.38;101173.56;7410204;19;1619;-64
2022/05/27 01:10:48;;;;;;;;;;;;;;;21.14;58.28;101167.47;7411219;19;1613;-63
2022/05/27 01:13:23;;;;;;;;;;;;;;;21.10;58.02;101176.81;7410425;19;1513;-64
2022/05/27 01:15:57;;;;;;;;;;;;;;;21.15;58.24;101179.91;7410368;19;1746;-64
2022/05/27 01:21:22;;;;;;;;;;;;;;;21.10;58.11;101163.34;7406831;19;1415;-64
2022/05/27 01:24:15;;;;;;;;;;;;;;;21.11;58.32;101162.34;7408383;19;1398;-64
2022/05/27 01:27:01;;;;;;;;;;;;;;;21.08;57.92;101171.56;7407149;19;1739;-64
2022/05/27 01:29:59;;;;;;;;;;;;;;;21.10;58.25;101156.13;7408210;19;1644;-69
2022/05/27 01:32:33;;;;;;;;;;;;;;;21.09;58.25;101154.44;7407073;19;1526;-68
2022/05/27 01:35:07;;;;;;;;;;;;;;;21.11;58.00;101159.66;7410121;19;1612;-65
2022/05/27 01:37:42;;;;;;;;;;;;;;;21.11;57.90;101165.03;7407741;19;1410;-64
2022/05/27 01:40:14;;;;;;;;;;;;;;;21.08;57.97;101159.97;7406611;19;1535;-65
2022/05/27 01:42:45;;;;;;;;;;;;;;;21.11;58.44;101160.53;7410173;19;1616;-65
2022/05/27 01:45:19;;;;;;;;;;;;;;;21.09;58.26;101167.91;7407633;19;1847;-64
2022/05/27 01:47:53;;;;;;;;;;;;;;;21.12;58.21;101177.50;7408792;19;1584;-64
2022/05/27 01:50:23;;;;;;;;;;;;;;;21.09;58.80;101158.94;7408095;19;1671;-64
2022/05/27 01:52:55;;;;;;;;;;;;;;;21.08;58.84;101173.41;7409903;19;967;-64
2022/05/27 01:55:27;;;;;;;;;;;;;;;21.13;58.42;101179.19;7408157;19;1684;-69
2022/05/27 01:57:59;;;;;;;;;;;;;;;21.13;58.22;101174.69;7408410;19;1417;-69
2022/05/27 02:00:29;;;;;;;;;;;;;;;21.11;58.21;101179.34;7406565;19;1366;-64
2022/05/27 02:03:02;;;;;;;;;;;;;;;21.10;58.60;101174.13;7403637;19;1526;-68
2022/05/27 02:05:34;;;;;;;;;;;;;;;21.09;58.79;101175.09;7406276;19;1850;-69
2022/05/27 02:08:05;;;;;;;;;;;;;;;21.12;58.77;101166.75;7407868;19;1438;-69
2022/05/27 02:10:38;;;;;;;;;;;;;;;21.10;58.82;101191.09;7408862;19;1401;-65
2022/05/27 02:13:10;;;;;;;;;;;;;;;21.11;58.45;101187.44;7406312;19;1669;-69
2022/05/27 02:15:41;;;;;;;;;;;;;;;21.07;58.61;101180.63;7405070;19;1655;-69
2022/05/27 02:18:15;;;;;;;;;;;;;;;21.06;58.64;101189.66;7406380;19;1553;-65
2022/05/27 02:20:47;;;;;;;;;;;;;;;20.93;58.74;101189.94;7408393;19;1409;-69
2022/05/27 02:23:20;;;;;;;;;;;;;;;20.87;58.21;101195.88;7407800;19;1627;-64
2022/05/27 02:25:49;;;;;;;;;;;;;;;20.87;58.78;101195.88;7408165;19;1971;-69
2022/05/27 02:28:19;;;;;;;;;;;;;;;20.83;57.82;101199.78;7407782;19;1494;-65
2022/05/27 02:30:49;;;;;;;;;;;;;;;20.85;57.75;101197.84;7407652;19;1750;-68
2022/05/27 02:36:07;;;;;;;;;;;;;;;20.96;59.01;101213.84;7408191;19;1754;-69
2022/05/27 02:38:35;;;;;;;;;;;;;;;20.98;58.96;101211.88;7407295;19;1743;-69
2022/05/27 02:41:07;;;;;;;;;;;;;;;20.99;58.67;101199.25;7407288;19;1545;-68
2022/05/27 02:43:42;;;;;;;;;;;;;;;20.99;58.81;101218.97;7406846;19;1428;-68
2022/05/27 02:46:17;;;;;;;;;;;;;;;21.00;58.69;101212.56;7404889;19;1867;-64
2022/05/27 02:48:55;;;;;;;;;;;;;;;21.01;58.26;101210.75;7406006;19;1517;-65
2022/05/27 02:51:26;;;;;;;;;;;;;;;20.99;58.30;101205.50;7407689;19;1543;-69
2022/05/27 02:54:00;;;;;;;;;;;;;;;20.97;58.34;101225.44;7407259;19;1501;-64
2022/05/27 02:56:30;;;;;;;;;;;;;;;20.95;58.68;101208.59;7406528;19;1362;-65
2022/05/27 02:58:58;;;;;;;;;;;;;;;20.99;58.66;101210.03;7405158;19;1537;-68
2022/05/27 03:01:26;;;;;;;;;;;;;;;20.98;58.29;101203.81;7405209;19;1425;-68
2022/05/27 03:03:57;;;;;;;;;;;;;;;20.95;57.89;101214.84;7405778;19;1597;-65
2022/05/27 03:06:31;;;;;;;;;;;;;;;20.91;57.94;101208.03;7405385;19;1870;-64
2022/05/27 03:09:03;;;;;;;;;;;;;;;20.88;57.93;101200.25;7405741;19;1283;-64
2022/05/27 03:11:37;;;;;;;;;;;;;;;20.89;58.00;101199.28;7405926;19;1604;-64
2022/05/27 03:14:15;;;;;;;;;;;;;;;20.85;57.70;101198.69;7405417;19;1401;-68
2022/05/27 03:16:48;;;;;;;;;;;;;;;20.92;57.82;101220.47;7406217;19;1533;-68
2022/05/27 03:19:33;;;;;;;;;;;;;;;20.91;58.10;101218.81;7406597;19;1596;-65
2022/05/27 03:22:06;;;;;;;;;;;;;;;20.90;57.99;101217.09;7407338;19;1386;-64
2022/05/27 03:24:40;;;;;;;;;;;;;;;20.92;57.94;101231.25;7406264;19;1879;-64
2022/05/27 03:27:13;;;;;;;;;;;;;;;20.99;58.09;101226.16;7405538;19;1643;-68
2022/05/27 03:29:46;;;;;;;;;;;;;;;20.98;57.90;101235.22;7404890;19;1396;-64
2022/05/27 03:32:20;;;;;;;;;;;;;;;20.93;57.90;101226.69;7403704;19;1612;-68
2022/05/27 03:34:53;;;;;;;;;;;;;;;20.94;57.74;101207.75;7405198;19;1276;-68
2022/05/27 03:37:24;;;;;;;;;;;;;;;20.97;57.94;101223.63;7406027;19;1466;-64
2022/05/27 03:39:58;;;;;;;;;;;;;;;21.02;57.94;101218.66;7403590;19;1476;-64
2022/05/27 03:42:26;;;;;;;;;;;;;;;21.05;58.23;101221.09;7405681;19;1438;-68
2022/05/27 03:44:58;;;;;;;;;;;;;;;21.06;58.40;101232.69;7403751;19;1857;-68
2022/05/27 03:47:27;;;;;;;;;;;;;;;21.09;58.34;101226.19;7403714;19;1533;-70
2022/05/27 03:49:58;;;;;;;;;;;;;;;21.14;58.10;101223.94;7404186;19;1477;-69
2022/05/27 03:52:28;;;;;;;;;;;;;;;21.17;58.12;101243.34;7404310;19;1308;-68
2022/05/27 03:54:56;;;;;;;;;;;;;;;21.16;57.90;101222.81;7401482;19;1522;-63
2022/05/27 03:57:25;;;;;;;;;;;;;;;21.17;57.82;101243.34;7403093;19;1873;-68
2022/05/27 03:59:53;;;;;;;;;;;;;;;21.18;58.06;101244.19;7403379;19;1354;-64
2022/05/27 04:02:21;;;;;;;;;;;;;;;21.18;57.84;101233.44;7399912;19;1494;-69
2022/05/27 04:04:50;;;;;;;;;;;;;;;21.22;57.55;101240.22;7400590;19;1866;-68
2022/05/27 04:07:21;;;;;;;;;;;;;;;21.24;57.29;101251.69;7403554;19;1346;-68
2022/05/27 04:09:49;;;;;;;;;;;;;;;21.28;57.61;101239.66;7402685;19;1338;-69
2022/05/27 04:12:18;;;;;;;;;;;;;;;21.30;57.31;101245.75;7405865;19;1150;-65
2022/05/27 04:14:46;;;;;;;;;;;;;;;21.29;57.33;101238.69;7408501;19;1395;-68
2022/05/27 04:19:55;;;;;;;;;;;;;;;21.39;57.40;101255.69;7404299;19;1545;-64
2022/05/27 04:22:26;;;;;;;;;;;;;;;21.43;57.16;101242.84;7405863;19;1477;-68
2022/05/27 04:24:55;;;;;;;;;;;;;;;21.47;57.35;101244.28;7407487;19;1855;-64
2022/05/27 04:27:24;;;;;;;;;;;;;;;21.45;57.35;101244.41;7408793;19;1514;-62
2022/05/27 04:29:53;;;;;;;;;;;;;;;21.52;57.58;101228.53;7407931;19;1548;-66
2022/05/27 04:32:22;;;;;;;;;;;;;;;21.50;57.38;101243.13;7294277;19;14700;-65
2022/05/27 04:34:50;;;;;;;;;;;;;;;21.45;56.91;101227.41;7406505;19;1286;-66
2022/05/27 04:37:19;;;;;;;;;;;;;;;21.54;57.37;101241.84;7408472;19;1450;-65
2022/05/27 04:39:50;;;;;;;;;;;;;;;21.53;58.44;101227.56;7407388;19;1296;-66
2022/05/27 04:42:19;;;;;;;;;;;;;;;21.60;57.59;101233.22;7407567;19;1316;-65
2022/05/27 04:44:47;;;;;;;;;;;;;;;21.41;58.27;101234.03;7406407;19;1300;-64
2022/05/27 04:47:15;;;;;;;;;;;;;;;21.39;57.92;101236.88;7403348;19;1869;-64
2022/05/27 04:49:59;;;;;;;;;;;;;;;21.27;57.17;101240.69;7404281;19;1308;-63
2022/05/27 04:52:29;;;;;;;;;;;;;;;21.15;57.08;101252.50;7405056;19;1202;-64
2022/05/27 04:55:02;;;;;;;;;;;;;;;21.15;56.80;101257.91;7406892;19;1312;-64
2022/05/27 04:57:32;;;;;;;;;;;;;;;21.00;57.49;101255.59;7407671;19;1373;-65
2022/05/27 05:00:01;;;;;;;;;;;;;;;21.10;56.90;101270.91;7406497;19;1281;-65
2022/05/27 05:02:29;;;;;;;;;;;;;;;20.99;56.92;101259.28;7262595;19;2810583;-64
2022/05/27 05:04:58;;;;;;;;;;;;;;;21.00;56.78;101255.59;7408292;19;1319;-63
2022/05/27 05:07:27;;;;;;;;;;;;;;;20.99;56.81;101261.97;7407493;19;1838;-64
2022/05/27 05:09:57;;;;;;;;;;;;;;;21.11;57.72;101260.03;7409326;19;1630;-65
2022/05/27 05:12:28;;;;;;;;;;;;;;;21.49;57.54;101266.50;7410867;19;1343;-64
2022/05/27 05:14:57;;;;;;;;;;;;;;;21.65;57.08;101271.34;7409445;19;1531;-62
2022/05/27 05:17:25;;;;;;;;;;;;;;;21.76;57.24;101264.97;7406029;19;1615;-62
2022/05/27 05:19:55;;;;;;;;;;;;;;;21.87;56.67;101258.59;7409365;19;1283;-66
2022/05/27 05:22:24;;;;;;;;;;;;;;;21.95;57.20;101280.28;7408618;19;1312;-64
2022/05/27 05:24:53;;;;;;;;;;;;;;;21.99;57.35;101276.28;7409063;19;1406;-63
2022/05/27 05:27:21;;;;;;;;;;;;;;;22.15;57.69;101273.03;7406356;19;1818;-63
2022/05/27 05:29:53;;;;;;;;;;;;;;;22.27;58.04;101281.81;7408392;19;1520;-64
2022/05/27 05:32:22;;;;;;;;;;;;;;;22.18;58.18;101278.97;7406018;19;1382;-64
2022/05/27 05:34:51;;;;;;;;;;;;;;;22.22;58.20;101280.38;7410628;19;1531;-68
2022/05/27 05:37:19;;;;;;;;;;;;;;;22.17;57.91;101274.56;7410392;19;1549;-64
2022/05/27 05:39:48;;;;;;;;;;;;;;;22.16;57.54;101275.59;7408862;19;1360;-66
2022/05/27 05:42:16;;;;;;;;;;;;;;;22.27;57.02;101276.44;7406445;19;1216;-61
2022/05/27 05:44:45;;;;;;;;;;;;;;;22.20;56.58;101266.22;7408523;19;1203;-61
2022/05/27 05:47:16;;;;;;;;;;;;;;;22.22;57.06;101277.69;7407154;19;1857;-66
2022/05/27 05:49:44;;;;;;;;;;;;;;;22.26;56.36;101269.34;7405162;19;1752;-65
2022/05/27 05:52:12;;;;;;;;;;;;;;;22.23;56.57;101295.53;7406042;19;1479;-68
2022/05/27 05:54:41;;;;;;;;;;;;;;;22.14;56.49;101277.53;7406133;19;1348;-68
2022/05/27 05:57:10;;;;;;;;;;;;;;;22.12;56.87;101284.91;7409042;19;1233;-67
2022/05/27 05:59:40;;;;;;;;;;;;;;;22.28;56.71;101275.44;7406596;19;1276;-66
2022/05/27 06:02:09;;;;;;;;;;;;;;;22.25;56.97;101281.97;7405540;19;1485;-66
2022/05/27 06:04:40;;;;;;;;;;;;;;;22.23;57.29;101292.00;7407514;19;1257;-64
2022/05/27 06:07:08;;;;;;;;;;;;;;;22.16;57.39;101272.00;7406270;19;1860;-66
2022/05/27 06:09:37;;;;;;;;;;;;;;;22.14;57.85;101277.53;7405395;19;1612;-63
2022/05/27 06:12:05;;;;;;;;;;;;;;;22.13;57.98;101285.78;7405891;19;1398;-63
2022/05/27 06:14:34;;;;;;;;;;;;;;;22.19;57.86;101294.13;7406953;19;1202;-65
2022/05/27 06:17:02;;;;;;;;;;;;;;;22.21;58.39;101275.97;7405964;19;1348;-64
2022/05/27 06:19:30;;;;;;;;;;;;;;;22.20;57.67;101270.72;7405447;19;1253;-63
2022/05/27 06:22:01;;;;;;;;;;;;;;;22.24;57.84;101286.50;7406518;19;1227;-65
2022/05/27 06:24:30;;;;;;;;;;;;;;;22.23;58.09;101275.84;7406142;19;1670;-63
2022/05/27 06:26:58;;;;;;;;;;;;;;;22.19;58.46;101275.28;7405667;19;1855;-64
2022/05/27 06:34:48;;;;;;;;;;;;;;;22.14;58.35;101274.84;7404659;19;1571;-64
2022/05/27 06:37:21;;;;;;;;;;;;;;;22.12;58.56;101268.75;7405916;19;1227;-64
2022/05/27 06:39:50;;;;;;;;;;;;;;;22.10;58.57;101270.75;7406865;19;1384;-64
2022/05/27 06:42:19;;;;;;;;;;;;;;;22.09;58.66;101273.59;7405625;19;1415;-64
2022/05/27 06:44:48;;;;;;;;;;;;;;;22.09;58.84;101269.06;7406452;19;1372;-65
2022/05/27 06:47:16;;;;;;;;;;;;;;;22.09;59.31;101269.06;7405002;19;1850;-65
2022/05/27 06:49:46;;;;;;;;;;;;;;;22.11;59.35;101258.16;7403940;19;1312;-64
2022/05/27 06:52:15;;;;;;;;;;;;;;;22.09;59.56;101257.44;7407662;19;1035;-65
2022/05/27 06:54:46;;;;;;;;;;;;;;;22.08;59.43;101266.50;7405942;19;1348;-64
2022/05/27 06:57:15;;;;;;;;;;;;;;;22.09;59.55;101257.44;7405923;19;1173;-65
2022/05/27 06:59:43;;;;;;;;;;;;;;;22.09;59.59;101263.66;7405071;19;1467;-63
2022/05/27 07:02:12;;;;;;;;;;;;;;;22.06;59.69;101250.47;7404260;19;1474;-64
2022/05/27 07:04:40;;;;;;;;;;;;;;;22.08;59.48;101266.50;7406234;19;1444;-64
2022/05/27 07:07:09;;;;;;;;;;;;;;;22.07;59.44;101268.34;7405187;19;1860;-65
2022/05/27 07:09:38;;;;;;;;;;;;;;;22.08;59.29;101267.34;7405552;19;1677;-65
2022/05/27 07:12:11;;;;;;;;;;;;;;;22.05;59.43;101290.03;7404150;19;1789;-65
2022/05/27 07:14:40;;;;;;;;;;;;;;;22.08;59.24;101253.88;7406003;19;1577;-64
2022/05/27 07:17:09;;;;;;;;;;;;;;;22.07;59.40;101262.97;7405156;19;1375;-65
2022/05/27 07:19:37;;;;;;;;;;;;;;;22.06;59.52;101261.25;7405670;19;1333;-65
2022/05/27 07:22:07;;;;;;;;;;;;;;;22.06;59.56;101263.94;7404864;19;1213;-64
2022/05/27 07:24:36;;;;;;;;;;;;;;;22.08;59.83;101259.25;7404675;19;1158;-65
2022/05/27 07:27:04;;;;;;;;;;;;;;;22.13;59.96;101259.69;7404002;19;1859;-65
2022/05/27 07:29:36;;;;;;;;;;;;;;;22.13;59.81;101248.91;7404615;19;1460;-63
2022/05/27 07:32:04;;;;;;;;;;;;;;;22.09;59.69;101263.66;7404389;19;1396;-63
2022/05/27 07:34:33;;;;;;;;;;;;;;;22.10;59.92;101257.28;7404057;19;1152;-65
2022/05/27 07:37:01;;;;;;;;;;;;;;;22.09;59.88;101269.06;7403805;19;1351;-64
2022/05/27 07:39:30;;;;;;;;;;;;;;;22.08;59.85;101269.19;7404480;19;1741;-64
2022/05/27 07:41:58;;;;;;;;;;;;;;;22.07;60.18;101260.28;7402815;19;1368;-64
2022/05/27 07:44:27;;;;;;;;;;;;;;;22.08;60.35;101272.72;7405026;19;1597;-65
2022/05/27 07:46:58;;;;;;;;;;;;;;;22.04;60.07;101255.16;7404127;19;1847;-64
2022/05/27 07:49:26;;;;;;;;;;;;;;;22.04;60.32;101245.25;7406049;19;1566;-64
2022/05/27 07:51:54;;;;;;;;;;;;;;;22.06;60.21;101263.94;7404790;19;1492;-63
2022/05/27 07:54:23;;;;;;;;;;;;;;;22.08;60.27;101264.66;7402449;19;1305;-65
2022/05/27 07:56:52;;;;;;;;;;;;;;;22.06;60.24;101258.56;7405122;19;1627;-63
2022/05/27 07:59:20;;;;;;;;;;;;;;;22.06;60.25;101255.88;7402755;19;1495;-64
2022/05/27 08:01:49;;;;;;;;;;;;;;;22.24;60.43;101256.00;7402123;19;1390;-63
2022/05/27 08:04:20;;;;;;;;;;;;;;;22.24;60.72;101266.78;7404005;19;1240;-64
2022/05/27 08:06:48;;;;;;;;;;;;;;;22.23;60.64;101259.69;7404090;19;1853;-64
2022/05/27 08:09:17;;;;;;;;;;;;;;;22.21;60.48;101242.81;7403230;19;1764;-65
2022/05/27 08:11:45;;;;;;;;;;;;;;;22.15;61.09;101244.22;7403507;19;1602;-64
2022/05/27 08:14:13;;;;;;;;;;;;;;;22.23;61.01;101233.59;7402611;19;1283;-63
2022/05/27 08:16:43;;;;;;;;;;;;;;;22.32;61.29;101234.59;7405289;19;1570;-67
2022/05/27 08:19:11;;;;;;;;;;;;;;;22.28;60.99;101243.09;7403854;19;1658;-62
2022/05/27 08:21:42;;;;;;;;;;;;;;;22.38;61.43;101242.09;7404636;19;1465;-63
2022/05/27 08:24:10;;;;;;;;;;;;;;;22.33;61.64;101238.97;7403536;19;1729;-66
2022/05/27 08:26:40;;;;;;;;;;;;;;;22.32;61.31;101236.41;7402916;19;1859;-68
2022/05/27 08:29:09;;;;;;;;;;;;;;;22.28;61.52;101232.31;7403241;19;1574;-65
2022/05/27 08:31:38;;;;;;;;;;;;;;;22.24;61.48;101235.31;7402881;19;1334;-62
2022/05/27 08:39:30;;;;;;;;;;;;;;;22.27;61.62;101236.03;7403638;19;1054;-67
2022/05/27 08:42:10;;;;;;;;;;;;;;;22.22;61.75;101223.81;7403537;19;1615;-63
2022/05/27 08:44:43;;;;;;;;;;;;;;;22.25;62.51;101225.38;7401226;19;1426;-64
2022/05/27 08:47:16;;;;;;;;;;;;;;;22.17;62.29;101234.16;7402851;19;1850;-64
2022/05/27 08:49:47;;;;;;;;;;;;;;;22.22;62.30;101218.44;7401359;19;1394;-63
2022/05/27 08:52:21;;;;;;;;;;;;;;;22.22;61.88;101207.66;7402977;19;1300;-63
2022/05/27 08:54:52;;;;;;;;;;;;;;;22.20;61.80;101206.94;7401901;19;1466;-63
2022/05/27 09:00:04;;;;;;;;;;;;;;;22.13;62.01;101197.75;7410906;19;1649;-64
2022/05/27 09:02:35;;;;;;;;;;;;;;;22.15;62.03;101209.22;7407030;19;1687;-63
2022/05/27 09:05:14;;;;;;;;;;;;;;;22.16;61.99;101199.28;7408913;19;1357;-64
2022/05/27 09:07:51;;;;;;;;;;;;;;;22.12;62.12;101205.97;7408467;19;1862;-64
2022/05/27 09:10:20;;;;;;;;;;;;;;;22.11;62.15;101199.72;7409286;19;1258;-63
2022/05/27 09:13:12;;;;;;;;;;;;;;;22.12;62.19;101200.56;7409281;19;1451;-63
2022/05/27 09:15:47;;;;;;;;;;;;;;;22.12;61.99;101206.78;7407221;19;2020;-63
2022/05/27 09:18:21;;;;;;;;;;;;;;;22.11;62.00;101180.88;7409659;19;1523;-63
2022/05/27 09:20:58;;;;;;;;;;;;;;;22.11;61.94;101188.97;7408855;19;1684;-63
2022/05/27 09:23:40;;;;;;;;;;;;;;;22.12;61.88;101187.09;7408848;19;1547;-64
2022/05/27 09:26:13;;;;;;;;;;;;;;;22.10;62.22;101176.47;7409663;19;1575;-63
2022/05/27 09:28:46;;;;;;;;;;;;;;;22.12;62.08;101187.09;7406875;19;1838;-64
2022/05/27 09:31:18;;;;;;;;;;;;;;;22.11;62.10;101188.13;7406414;19;1209;-63
2022/05/27 09:33:47;;;;;;;;;;;;;;;22.15;62.05;101193.06;7409457;19;1410;-64
2022/05/27 09:36:17;;;;;;;;;;;;;;;22.12;61.99;101187.94;7408325;19;1743;-64
2022/05/27 09:38:52;;;;;;;;;;;;;;;22.07;61.98;101168.69;7407999;19;1277;-64
2022/05/27 09:41:25;;;;;;;;;;;;;;;22.10;61.95;101181.84;7408104;19;1531;-64
2022/05/27 09:43:56;;;;;;;;;;;;;;;22.09;62.17;101166.72;7408147;19;1422;-63
2022/05/27 09:46:27;;;;;;;;;;;;;;;22.11;62.05;101158.50;7409097;19;1622;-63
2022/05/27 09:48:57;;;;;;;;;;;;;;;22.09;62.14;101161.31;7406398;19;1846;-63
2022/05/27 09:51:27;;;;;;;;;;;;;;;22.10;62.35;101163.00;7408807;19;1509;-64
2022/05/27 09:54:00;;;;;;;;;;;;;;;22.08;62.28;101150.69;7408526;19;1621;-63
2022/05/27 09:56:37;;;;;;;;;;;;;;;22.11;62.46;101153.94;7409046;19;1492;-64
2022/05/27 09:59:20;;;;;;;;;;;;;;;22.07;62.19;101149.00;7408285;19;1599;-63
2022/05/27 10:01:49;;;;;;;;;;;;;;;22.06;62.34;101140.06;7406274;19;1473;-64
2022/05/27 10:04:19;;;;;;;;;;;;;;;22.05;62.45;101127.59;7409072;19;1434;-63
2022/05/27 10:06:48;;;;;;;;;;;;;;;22.05;62.46;101130.28;7408123;19;1842;-64
2022/05/27 10:09:33;;;;;;;;;;;;;;;22.02;62.64;101125.19;7403992;19;1530;-63
2022/05/27 10:12:01;;;;;;;;;;;;;;;22.03;62.50;101130.44;7406746;19;1625;-63
2022/05/27 10:14:32;;;;;;;;;;;;;;;22.01;62.78;101132.44;7406277;19;1539;-63
2022/05/27 10:17:04;;;;;;;;;;;;;;;22.02;62.69;101117.09;7407111;19;1402;-64
2022/05/27 10:19:33;;;;;;;;;;;;;;;22.02;62.50;101127.88;7407067;19;1304;-63
2022/05/27 10:22:02;;;;;;;;;;;;;;;22.03;62.64;101127.75;7408950;19;964;-63
2022/05/27 10:24:35;;;;;;;;;;;;;;;22.03;62.78;101114.28;7407341;19;1744;-63
2022/05/27 10:27:04;;;;;;;;;;;;;;;22.05;62.62;101111.44;7404756;19;1841;-63
2022/05/27 10:29:33;;;;;;;;;;;;;;;22.05;62.27;101104.19;7406432;19;1351;-64
2022/05/27 10:32:02;;;;;;;;;;;;;;;22.06;62.66;101107.72;7407142;19;1291;-64
2022/05/27 10:34:41;;;;;;;;;;;;;;;22.05;62.65;101109.59;7408056;19;1519;-63
2022/05/27 10:37:13;;;;;;;;;;;;;;;22.04;62.67;101109.72;7407125;19;1594;-64
2022/05/27 10:39:49;;;;;;;;;;;;;;;22.02;62.83;101098.25;7406108;19;1713;-64
2022/05/27 10:42:23;;;;;;;;;;;;;;;22.01;62.97;101104.66;7405946;19;1598;-63
2022/05/27 10:45:00;;;;;;;;;;;;;;;22.02;63.04;101109.03;7407598;19;1432;-63
2022/05/27 10:47:36;;;;;;;;;;;;;;;22.06;63.00;101096.97;7405553;19;1856;-64
2022/05/27 10:50:17;;;;;;;;;;;;;;;22.02;63.05;101095.56;7404752;19;1220;-64
2022/05/27 10:52:59;;;;;;;;;;;;;;;22.07;62.77;101098.66;7407647;19;1034;-63
2022/05/27 10:55:37;;;;;;;;;;;;;;;22.06;62.83;101075.41;7405222;19;1618;-63
2022/05/27 11:04:01;;;;;;;;;;;;;;;22.03;62.75;101060.41;7407014;19;1404;-63
2022/05/27 11:06:50;;;;;;;;;;;;;;;22.02;62.92;101071.31;7406048;19;1837;-64
2022/05/27 11:09:27;;;;;;;;;;;;;;;21.99;63.07;101055.47;7404317;19;1838;-64
2022/05/27 11:12:03;;;;;;;;;;;;;;;21.98;63.29;101057.31;7404574;19;1536;-64
2022/05/27 11:17:28;;;;;;;;;;;;;;;21.98;63.03;101051.06;7406671;19;1527;-64
2022/05/27 11:20:10;;;;;;;;;;;;;;;21.99;63.29;101044.72;7404704;19;1304;-63
2022/05/27 11:22:40;;;;;;;;;;;;;;;22.00;63.34;101055.34;7404465;19;1261;-63
2022/05/27 11:25:19;;;;;;;;;;;;;;;22.03;63.32;101030.78;7404356;19;1360;-63
2022/05/27 11:28:00;;;;;;;;;;;;;;;22.02;63.16;101047.09;7404246;19;1857;-63
2022/05/27 11:30:35;;;;;;;;;;;;;;;22.06;63.37;101045.78;7404887;19;1261;-64
2022/05/27 11:33:27;;;;;;;;;;;;;;;22.02;63.05;101034.50;7403718;19;1206;-64
2022/05/27 11:36:10;;;;;;;;;;;;;;;22.07;63.03;101030.50;7403488;19;1463;-64
2022/05/27 11:38:53;;;;;;;;;;;;;;;22.12;63.28;101033.59;7404974;19;1402;-64
2022/05/27 11:41:27;;;;;;;;;;;;;;;22.13;62.94;101016.44;7402131;19;1296;-63
2022/05/27 11:44:03;;;;;;;;;;;;;;;22.13;63.10;101019.13;7402600;19;1173;-63
2022/05/27 11:46:50;;;;;;;;;;;;;;;22.16;63.16;101021.50;7404843;19;1300;-63
2022/05/27 11:49:35;;;;;;;;;;;;;;;22.21;63.27;101027.31;7402459;19;1867;-63
2022/05/27 11:52:09;;;;;;;;;;;;;;;22.17;63.22;100999.81;7402829;19;1304;-63
2022/05/27 11:54:51;;;;;;;;;;;;;;;22.16;63.29;100995.44;7404201;19;1486;-63
2022/05/27 11:57:27;;;;;;;;;;;;;;;22.15;63.23;101003.66;7402050;19;1906;-63
2022/05/27 12:00:00;;;;;;;;;;;;;;;22.15;62.93;100996.44;7402566;19;1510;-63
2022/05/27 12:02:35;;;;;;;;;;;;;;;22.16;63.01;100990.06;7402307;19;1503;-64
2022/05/27 12:05:09;;;;;;;;;;;;;;;22.16;63.20;100990.06;7404155;19;1471;-64
2022/05/27 12:07:41;;;;;;;;;;;;;;;22.18;63.19;100998.84;7403452;19;1842;-64
2022/05/27 12:10:15;;;;;;;;;;;;;;;22.21;63.14;101001.22;7403128;19;1402;-64
2022/05/27 12:12:49;;;;;;;;;;;;;;;22.19;63.26;100981.66;7404846;19;1613;-63
2022/05/27 12:15:24;;;;;;;;;;;;;;;22.19;63.20;100981.66;7404087;19;1480;-64
2022/05/27 12:17:54;;;;;;;;;;;;;;;22.17;63.05;100964.81;7403939;19;1599;-64
2022/05/27 12:20:25;;;;;;;;;;;;;;;22.14;63.10;100964.25;7403605;19;1207;-63
2022/05/27 12:22:55;;;;;;;;;;;;;;;22.13;63.25;100973.34;7402839;19;1230;-57
2022/05/27 12:25:26;;;;;;;;;;;;;;;22.22;63.04;100975.97;7403503;19;1275;-67
2022/05/27 12:27:55;;;;;;;;;;;;;;;22.26;63.17;100952.28;7404428;19;1851;-62
2022/05/27 12:30:30;;;;;;;;;;;;;;;22.38;62.83;100961.00;7403294;19;1511;-62
2022/05/27 12:32:59;;;;;;;;;;;;;;;22.39;62.76;100941.16;7405913;19;1418;-65
2022/05/27 12:35:29;;;;;;;;;;;;;;;22.36;63.09;100944.13;7411771;19;1599;-62
2022/05/27 12:38:01;;;;;;;;;;;;;;;22.33;63.63;100952.53;7410600;19;1667;-64
2022/05/27 12:40:42;;;;;;;;;;;;;;;22.33;63.38;100942.59;7410313;19;1572;-63
2022/05/27 12:43:14;;;;;;;;;;;;;;;22.34;63.41;100941.63;7410086;19;1524;-63
2022/05/27 12:45:53;;;;;;;;;;;;;;;22.37;63.65;100943.16;7409604;19;1336;-64
2022/05/27 12:48:21;;;;;;;;;;;;;;;;;;7408982;19;1841;-64
2022/05/27 12:50:55;;;;;;;;;;;;;;;22.33;63.69;100939.06;7409842;19;1610;-64
2022/05/27 12:53:37;;;;;;;;;;;;;;;22.37;64.04;100932.38;7410793;19;1544;-64
2022/05/27 13:02:24;;;;;;;;;;;;;;;22.39;63.75;100919.59;7408838;19;1520;-65
2022/05/27 13:04:53;;;;;;;;;;;;;;;22.34;63.66;100890.44;7409951;19;1414;-62
2022/05/27 13:07:23;;;;;;;;;;;;;;;22.34;63.93;100911.97;7407966;19;1675;-64
2022/05/27 13:09:52;;;;;;;;;;;;;;;22.36;64.19;100907.28;7408229;19;1846;-61
2022/05/27 13:12:35;;;;;;;;;;;;;;;22.35;63.89;100899.34;7409834;19;1547;-62
2022/05/27 13:15:03;;;;;;;;;;;;;;;;;;7406053;19;1632;-60
2022/05/27 13:17:36;;;;;;;;;;;;;;;22.38;63.46;100905.28;7406953;19;1723;-64
2022/05/27 13:20:08;;;;;;;;;;;;;;;22.39;64.10;100884.56;7409695;19;1586;-66
2022/05/27 13:22:38;;;;;;;;;;;;;;;22.51;63.46;100880.63;7410043;19;1569;-63
2022/05/27 13:25:24;;;;;;;;;;;;;;;22.33;64.15;100877.09;7408128;19;1226;-64
2022/05/27 13:27:56;;;;;;;;;;;;;;;22.40;64.03;100883.53;7406418;19;1863;-66
2022/05/27 13:30:26;;;;;;;;;;;;;;;22.38;63.77;100883.72;7410127;19;1387;-63
2022/05/27 13:33:04;;;;;;;;;;;;;;;22.32;63.97;100878.97;7407060;19;1694;-63
2022/05/27 13:35:38;;;;;;;;;;;;;;;22.29;64.32;100883.81;7410089;19;1488;-63
2022/05/27 13:38:07;;;;;;;;;;;;;;;22.28;63.74;100874.84;7409068;19;1623;-62
2022/05/27 13:40:37;;;;;;;;;;;;;;;22.27;63.81;100861.56;7407637;19;1368;-62
2022/05/27 13:43:09;;;;;;;;;;;;;;;22.27;63.79;100864.25;7407549;19;1308;-63
2022/05/27 13:45:43;;;;;;;;;;;;;;;22.29;63.43;100856.88;7406779;19;1281;-64
2022/05/27 13:48:16;;;;;;;;;;;;;;;22.30;63.31;100850.47;7407859;19;1849;-62